createdAt,value
2018-04-24T00:01:32.473Z,8.70
2018-04-24T00:04:01.061Z,8.70
2018-04-24T00:06:29.687Z,8.50
2018-04-24T00:08:58.162Z,8.50
2018-04-24T00:11:27.469Z,8.50
2018-04-24T00:13:56.210Z,8.50
2018-04-24T00:16:24.927Z,8.50
2018-04-24T00:18:53.671Z,8.50
2018-04-24T00:21:22.250Z,8.50
2018-04-24T00:23:51.506Z,8.50
2018-04-24T00:26:20.016Z,8.50
2018-04-24T00:28:48.573Z,8.70
2018-04-24T00:31:17.069Z,8.40
2018-04-24T00:33:45.567Z,8.40
2018-04-24T00:36:14.107Z,8.50
2018-04-24T00:38:44.809Z,8.60
2018-04-24T00:41:13.333Z,8.60
2018-04-24T00:43:41.819Z,8.60
2018-04-24T00:46:10.307Z,8.50
2018-04-24T00:48:38.928Z,8.50
2018-04-24T00:51:07.485Z,8.40
2018-04-24T00:53:41.020Z,8.50
2018-04-24T00:56:09.654Z,8.50
2018-04-24T00:58:38.187Z,8.60
2018-04-24T01:01:06.709Z,8.50
2018-04-24T01:03:35.249Z,8.40
2018-04-24T01:06:03.791Z,8.50
2018-04-24T01:08:32.310Z,8.40
2018-04-24T01:11:00.847Z,8.40
2018-04-24T01:13:29.339Z,8.40
2018-04-24T01:15:57.860Z,8.40
2018-04-24T01:18:26.433Z,8.40
2018-04-24T01:20:54.926Z,8.40
2018-04-24T01:23:23.541Z,8.40
2018-04-24T01:25:52.027Z,8.40
2018-04-24T01:28:20.576Z,8.40
2018-04-24T01:30:49.128Z,8.30
2018-04-24T01:33:18.425Z,8.40
2018-04-24T01:35:47.021Z,8.50
2018-04-24T01:38:15.514Z,8.50
2018-04-24T01:40:44.035Z,8.50
2018-04-24T01:43:12.600Z,8.60
2018-04-24T01:45:41.285Z,8.70
2018-04-24T01:48:10.054Z,8.70
2018-04-24T01:50:38.534Z,8.70
2018-04-24T01:53:07.040Z,8.50
2018-04-24T01:55:35.593Z,8.50
2018-04-24T01:58:04.854Z,8.40
2018-04-24T02:00:33.356Z,8.40
2018-04-24T02:03:02.620Z,8.50
2018-04-24T02:05:31.596Z,8.40
2018-04-24T02:08:00.100Z,8.40
2018-04-24T02:10:28.643Z,8.40
2018-04-24T02:12:57.182Z,8.40
2018-04-24T02:15:25.659Z,8.50
2018-04-24T02:17:54.206Z,8.40
2018-04-24T02:20:22.753Z,8.40
2018-04-24T02:22:51.538Z,8.40
2018-04-24T02:25:20.845Z,8.40
2018-04-24T02:27:49.379Z,8.40
2018-04-24T02:30:17.875Z,8.40
2018-04-24T02:32:46.451Z,8.40
2018-04-24T02:35:14.993Z,8.40
2018-04-24T02:37:43.463Z,8.50
2018-04-24T02:40:12.021Z,8.40
2018-04-24T02:42:40.541Z,8.50
2018-04-24T02:45:09.075Z,8.40
2018-04-24T02:47:38.396Z,8.50
2018-04-24T02:50:07.677Z,8.50
2018-04-24T02:52:36.223Z,8.50
2018-04-24T02:55:04.780Z,8.40
2018-04-24T02:57:33.294Z,8.40
2018-04-24T03:00:01.911Z,8.40
2018-04-24T03:02:30.453Z,8.50
2018-04-24T03:04:59.016Z,8.50
2018-04-24T03:07:27.502Z,8.40
2018-04-24T03:09:56.037Z,8.50
2018-04-24T03:12:24.603Z,8.50
2018-04-24T03:14:53.895Z,8.40
2018-04-24T03:17:22.741Z,8.40
2018-04-24T03:19:51.276Z,8.50
2018-04-24T03:22:19.889Z,8.40
2018-04-24T03:24:48.796Z,8.40
2018-04-24T03:27:17.486Z,8.40
2018-04-24T03:29:46.493Z,8.40
2018-04-24T03:32:14.985Z,8.40
2018-04-24T03:34:43.498Z,8.40
2018-04-24T03:37:12.013Z,8.30
2018-04-24T03:39:40.656Z,8.40
2018-04-24T03:42:09.150Z,8.50
2018-04-24T03:44:38.279Z,8.40
2018-04-24T03:47:06.781Z,8.40
2018-04-24T03:49:35.387Z,8.40
2018-04-24T03:52:04.167Z,8.50
2018-04-24T03:54:32.684Z,8.40
2018-04-24T03:57:01.311Z,8.40
2018-04-24T03:59:29.806Z,8.30
2018-04-24T04:01:58.368Z,8.30
2018-04-24T04:04:26.899Z,8.40
2018-04-24T04:06:55.417Z,8.40
2018-04-24T04:09:23.962Z,8.40
2018-04-24T04:11:52.980Z,8.40
2018-04-24T04:14:21.468Z,8.60
2018-04-24T04:16:50.884Z,8.50
2018-04-24T04:19:31.072Z,8.50
2018-04-24T04:22:11.554Z,8.50
2018-04-24T04:24:44.777Z,8.50
2018-04-24T04:27:14.173Z,8.50
2018-04-24T04:29:42.662Z,8.60
2018-04-24T04:32:11.368Z,8.60
2018-04-24T04:34:39.886Z,8.60
2018-04-24T04:37:08.423Z,8.50
2018-04-24T04:39:37.717Z,8.40
2018-04-24T04:42:06.607Z,8.40
2018-04-24T04:44:35.347Z,8.30
2018-04-24T04:47:04.014Z,8.30
2018-04-24T04:49:32.541Z,8.30
2018-04-24T04:52:01.023Z,8.50
2018-04-24T04:54:29.515Z,8.50
2018-04-24T04:56:58.009Z,8.50
2018-04-24T04:59:26.490Z,8.70
2018-04-24T05:01:54.994Z,8.80
2018-04-24T05:04:23.507Z,8.70
2018-04-24T05:06:52.064Z,8.60
2018-04-24T05:09:20.705Z,8.60
2018-04-24T05:11:50.505Z,8.60
2018-04-24T05:14:19.640Z,8.60
2018-04-24T05:16:48.148Z,8.80
2018-04-24T05:19:16.760Z,8.90
2018-04-24T05:21:45.244Z,8.80
2018-04-24T05:24:13.741Z,8.80
2018-04-24T05:26:42.236Z,8.80
2018-04-24T05:29:11.421Z,8.80
2018-04-24T05:31:40.670Z,8.80
2018-04-24T05:34:09.171Z,8.80
2018-04-24T05:36:37.662Z,8.70
2018-04-24T05:39:06.202Z,8.70
2018-04-24T05:41:34.717Z,8.80
2018-04-24T05:44:03.207Z,8.90
2018-04-24T05:46:31.696Z,8.90
2018-04-24T05:49:00.189Z,8.90
2018-04-24T05:51:28.797Z,9.10
2018-04-24T05:53:57.295Z,9.20
2018-04-24T05:56:25.839Z,9.20
2018-04-24T05:58:54.389Z,9.30
2018-04-24T06:01:22.903Z,9.20
2018-04-24T06:03:51.682Z,9.20
2018-04-24T06:06:20.193Z,9.30
2018-04-24T06:08:48.789Z,9.30
2018-04-24T06:11:17.305Z,9.40
2018-04-24T06:13:45.793Z,9.60
2018-04-24T06:16:14.396Z,10.00
2018-04-24T06:18:43.698Z,10.30
2018-04-24T06:21:12.207Z,10.30
2018-04-24T06:23:41.537Z,10.70
2018-04-24T06:26:10.052Z,10.70
2018-04-24T06:28:38.643Z,10.70
2018-04-24T06:31:07.155Z,10.30
2018-04-24T06:33:35.938Z,9.90
2018-04-24T06:36:04.701Z,10.10
2018-04-24T06:38:33.142Z,10.20
2018-04-24T06:41:01.655Z,10.30
2018-04-24T06:43:30.165Z,10.50
2018-04-24T06:45:58.749Z,10.40
2018-04-24T06:48:27.280Z,10.30
2018-04-24T06:50:55.788Z,10.10
2018-04-24T06:53:24.406Z,10.00
2018-04-24T06:55:52.936Z,9.80
2018-04-24T06:58:21.880Z,9.80
2018-04-24T07:00:51.275Z,9.80
2018-04-24T07:03:19.774Z,9.80
2018-04-24T07:05:48.308Z,9.90
2018-04-24T07:08:16.831Z,9.90
2018-04-24T07:10:45.324Z,10.00
2018-04-24T07:13:13.845Z,10.00
2018-04-24T07:15:42.697Z,9.90
2018-04-24T07:18:11.877Z,9.90
2018-04-24T07:20:40.883Z,9.90
2018-04-24T07:23:09.380Z,10.00
2018-04-24T07:25:37.999Z,10.10
2018-04-24T07:28:06.615Z,10.20
2018-04-24T07:30:35.715Z,10.30
2018-04-24T07:33:04.244Z,10.30
2018-04-24T07:35:32.736Z,10.30
2018-04-24T07:38:01.240Z,10.40
2018-04-24T07:40:29.740Z,10.50
2018-04-24T07:42:58.228Z,10.60
2018-04-24T07:45:26.741Z,10.70
2018-04-24T07:47:55.249Z,10.80
2018-04-24T07:50:23.853Z,10.90
2018-04-24T07:52:53.107Z,11.00
2018-04-24T07:55:21.608Z,11.00
2018-04-24T07:57:50.112Z,11.00
2018-04-24T08:00:19.405Z,11.30
2018-04-24T08:02:48.627Z,11.30
2018-04-24T08:05:17.144Z,11.50
2018-04-24T08:07:45.660Z,11.50
2018-04-24T08:10:14.202Z,11.30
2018-04-24T08:12:42.700Z,11.40
2018-04-24T08:15:11.183Z,11.20
2018-04-24T08:17:39.775Z,11.30
2018-04-24T08:20:08.330Z,11.50
2018-04-24T08:22:39.208Z,11.60
2018-04-24T08:25:08.028Z,11.60
2018-04-24T08:27:36.584Z,11.80
2018-04-24T08:30:05.161Z,11.80
2018-04-24T08:32:33.703Z,11.80
2018-04-24T08:35:02.366Z,11.80
2018-04-24T08:37:32.696Z,11.70
2018-04-24T08:40:01.197Z,11.60
2018-04-24T08:42:29.847Z,11.50
2018-04-24T08:44:58.343Z,11.40
2018-04-24T08:47:26.983Z,11.20
2018-04-24T08:49:55.553Z,11.30
2018-04-24T08:52:24.089Z,11.50
2018-04-24T08:54:53.023Z,11.40
2018-04-24T08:57:22.169Z,11.40
2018-04-24T08:59:50.663Z,11.60
2018-04-24T09:02:19.449Z,11.80
2018-04-24T09:04:48.543Z,11.90
2018-04-24T09:07:17.035Z,12.10
2018-04-24T09:09:45.544Z,12.00
2018-04-24T09:12:14.172Z,12.00
2018-04-24T09:14:42.725Z,12.00
2018-04-24T09:17:11.251Z,12.10
2018-04-24T09:19:39.871Z,12.10
2018-04-24T09:22:09.046Z,12.30
2018-04-24T09:24:38.121Z,12.20
2018-04-24T09:27:07.156Z,12.10
2018-04-24T09:29:35.810Z,11.90
2018-04-24T09:32:04.863Z,11.90
2018-04-24T09:34:44.749Z,11.80
2018-04-24T09:37:13.710Z,11.80
2018-04-24T09:39:44.124Z,11.80
2018-04-24T09:42:13.266Z,11.80
2018-04-24T09:44:42.284Z,11.70
2018-04-24T09:47:10.956Z,11.80
2018-04-24T09:49:39.616Z,11.80
2018-04-24T09:52:08.414Z,11.60
2018-04-24T09:54:37.258Z,11.80
2018-04-24T09:57:06.396Z,11.80
2018-04-24T09:59:35.262Z,12.00
2018-04-24T10:02:04.254Z,11.90
2018-04-24T10:04:33.071Z,11.60
2018-04-24T10:07:01.797Z,11.40
2018-04-24T10:11:54.622Z,11.60
2018-04-24T10:14:23.234Z,11.50
2018-04-24T10:16:51.762Z,11.60
2018-04-24T10:19:20.293Z,11.70
2018-04-24T10:21:49.281Z,11.80
2018-04-24T10:24:18.051Z,12.10
2018-04-24T10:26:47.040Z,12.10
2018-04-24T10:29:15.829Z,11.90
2018-04-24T10:31:45.185Z,12.00
2018-04-24T10:34:16.067Z,11.90
2018-04-24T10:36:44.721Z,11.80
2018-04-24T10:39:13.444Z,11.80
2018-04-24T10:41:42.539Z,11.80
2018-04-24T10:44:11.206Z,11.80
2018-04-24T10:46:40.321Z,11.90
2018-04-24T10:49:09.413Z,11.90
2018-04-24T10:51:38.531Z,11.90
2018-04-24T10:54:07.127Z,12.00
2018-04-24T10:56:36.699Z,12.00
2018-04-24T10:59:06.209Z,12.00
2018-04-24T11:01:35.250Z,12.10
2018-04-24T11:04:03.970Z,12.40
2018-04-24T11:06:33.162Z,12.70
2018-04-24T11:09:02.078Z,12.80
2018-04-24T11:11:31.244Z,12.70
2018-04-24T11:14:00.368Z,12.50
2018-04-24T11:16:28.906Z,12.30
2018-04-24T11:18:57.398Z,12.10
2018-04-24T11:21:26.109Z,11.80
2018-04-24T11:23:55.381Z,11.80
2018-04-24T11:26:23.858Z,11.80
2018-04-24T11:28:52.354Z,11.90
2018-04-24T11:31:20.971Z,12.10
2018-04-24T11:33:49.852Z,12.20
2018-04-24T11:36:21.170Z,12.20
2018-04-24T11:38:49.953Z,12.30
2018-04-24T11:41:18.734Z,12.20
2018-04-24T11:43:47.885Z,12.20
2018-04-24T11:46:17.332Z,12.20
2018-04-24T11:48:46.474Z,12.20
2018-04-24T11:51:15.327Z,12.10
2018-04-24T11:53:45.832Z,12.40
2018-04-24T11:56:14.574Z,12.30
2018-04-24T11:58:43.222Z,12.60
2018-04-24T12:01:12.356Z,12.50
2018-04-24T12:03:41.376Z,12.50
2018-04-24T12:06:10.468Z,12.20
2018-04-24T12:08:39.649Z,12.00
2018-04-24T12:11:08.674Z,11.80
2018-04-24T12:13:37.837Z,11.70
2018-04-24T12:16:06.377Z,11.90
2018-04-24T12:18:34.875Z,11.80
2018-04-24T12:21:03.429Z,11.70
2018-04-24T12:23:31.927Z,11.70
2018-04-24T12:26:00.428Z,11.80
2018-04-24T12:28:28.983Z,11.70
2018-04-24T12:30:57.560Z,11.80
2018-04-24T12:33:26.143Z,11.70
2018-04-24T12:35:54.697Z,11.60
2018-04-24T12:38:23.196Z,11.70
2018-04-24T12:40:51.695Z,11.80
2018-04-24T12:43:20.200Z,11.90
2018-04-24T12:45:48.724Z,11.90
2018-04-24T12:48:17.257Z,11.90
2018-04-24T12:50:45.785Z,11.80
2018-04-24T12:53:14.414Z,11.50
2018-04-24T12:55:42.950Z,11.20
2018-04-24T12:58:11.647Z,11.10
2018-04-24T13:00:40.608Z,11.30
2018-04-24T13:03:09.434Z,11.50
2018-04-24T13:05:38.529Z,11.60
2018-04-24T13:08:07.290Z,11.70
2018-04-24T13:10:36.280Z,11.80
2018-04-24T13:13:04.946Z,11.90
2018-04-24T13:15:34.166Z,12.10
2018-04-24T13:18:03.109Z,12.30
2018-04-24T13:23:06.197Z,12.50
2018-04-24T13:25:35.062Z,12.40
2018-04-24T13:28:03.944Z,12.40
2018-04-24T13:30:32.441Z,12.50
2018-04-24T13:33:03.310Z,12.50
2018-04-24T13:35:32.407Z,12.50
2018-04-24T13:38:00.903Z,12.40
2018-04-24T13:40:29.381Z,12.30
2018-04-24T13:42:57.876Z,12.20
2018-04-24T13:45:26.571Z,12.00
2018-04-24T13:47:55.678Z,11.90
2018-04-24T13:50:24.180Z,11.80
2018-04-24T13:52:52.808Z,11.90
2018-04-24T13:55:21.434Z,11.90
2018-04-24T13:57:50.423Z,12.10
2018-04-24T14:00:19.447Z,12.20
2018-04-24T14:02:49.440Z,12.40
2018-04-24T14:05:17.974Z,12.50
2018-04-24T14:07:46.702Z,12.40
2018-04-24T14:10:15.391Z,12.40
2018-04-24T14:12:44.171Z,12.40
2018-04-24T14:15:13.249Z,12.40
2018-04-24T14:17:41.951Z,12.20
2018-04-24T14:20:11.047Z,12.30
2018-04-24T14:22:39.673Z,12.30
2018-04-24T14:25:08.415Z,12.30
2018-04-24T14:27:37.111Z,12.40
2018-04-24T14:30:05.811Z,12.30
2018-04-24T14:32:35.101Z,12.30
2018-04-24T14:35:03.911Z,12.00
2018-04-24T14:37:32.576Z,11.70
2018-04-24T14:40:01.356Z,11.80
2018-04-24T14:42:30.040Z,11.80
2018-04-24T14:44:58.978Z,11.90
2018-04-24T14:47:28.232Z,12.10
2018-04-24T14:49:56.766Z,12.10
2018-04-24T14:52:25.601Z,12.10
2018-04-24T14:54:54.290Z,12.20
2018-04-24T14:57:23.286Z,12.20
2018-04-24T14:59:52.004Z,12.10
2018-04-24T15:02:20.748Z,12.20
2018-04-24T15:04:49.867Z,12.10
2018-04-24T15:07:18.878Z,12.00
2018-04-24T15:09:47.897Z,11.70
2018-04-24T15:12:16.661Z,11.70
2018-04-24T15:14:45.380Z,11.50
2018-04-24T15:17:14.919Z,11.50
2018-04-24T15:19:43.939Z,11.40
2018-04-24T15:22:12.654Z,11.30
2018-04-24T15:24:42.045Z,11.20
2018-04-24T15:27:10.567Z,11.10
2018-04-24T15:29:39.858Z,11.10
2018-04-24T15:32:09.149Z,11.30
2018-04-24T15:34:39.628Z,11.30
2018-04-24T15:37:08.284Z,11.30
2018-04-24T15:39:37.181Z,11.50
2018-04-24T15:42:06.215Z,11.70
2018-04-24T15:44:35.369Z,11.70
2018-04-24T15:47:04.325Z,11.70
2018-04-24T15:49:33.201Z,11.50
2018-04-24T15:52:02.180Z,11.30
2018-04-24T15:54:31.674Z,11.20
2018-04-24T15:57:00.692Z,11.10
2018-04-24T15:59:30.560Z,10.90
2018-04-24T16:01:59.251Z,10.90
2018-04-24T16:04:27.964Z,10.70
2018-04-24T16:06:56.706Z,10.70
2018-04-24T16:09:25.296Z,10.80
2018-04-24T16:11:54.599Z,10.70
2018-04-24T16:14:25.077Z,10.80
2018-04-24T16:16:53.973Z,10.70
2018-04-24T16:19:22.742Z,10.90
2018-04-24T16:21:51.810Z,10.90
2018-04-24T16:24:20.801Z,11.00
2018-04-24T16:26:49.516Z,11.10
2018-04-24T16:29:18.680Z,11.10
2018-04-24T16:31:47.566Z,11.20
2018-04-24T16:34:16.367Z,11.20
2018-04-24T16:36:46.258Z,11.20
2018-04-24T16:39:15.568Z,11.30
2018-04-24T16:41:44.882Z,11.10
2018-04-24T16:44:13.380Z,11.10
2018-04-24T16:46:42.008Z,11.00
2018-04-24T16:49:10.942Z,10.90
2018-04-24T16:51:39.611Z,11.00
2018-04-24T16:54:08.957Z,10.90
2018-04-24T16:56:37.554Z,10.90
2018-04-24T16:59:06.490Z,10.90
2018-04-24T17:01:35.680Z,11.00
2018-04-24T17:04:04.672Z,11.00
2018-04-24T17:06:33.366Z,11.00
2018-04-24T17:09:02.880Z,11.00
2018-04-24T17:11:32.000Z,11.00
2018-04-24T17:14:00.964Z,11.00
2018-04-24T17:16:30.825Z,10.90
2018-04-24T17:18:59.328Z,10.80
2018-04-24T17:21:28.369Z,10.80
2018-04-24T17:23:57.528Z,10.90
2018-04-24T17:26:28.684Z,10.80
2018-04-24T17:28:57.377Z,10.80
2018-04-24T17:31:26.471Z,10.70
2018-04-24T17:33:54.979Z,10.70
2018-04-24T17:36:23.529Z,10.70
2018-04-24T17:38:53.342Z,10.80
2018-04-24T17:41:22.003Z,10.80
2018-04-24T17:43:50.509Z,10.80
2018-04-24T17:46:19.034Z,10.80
2018-04-24T17:48:47.566Z,10.80
2018-04-24T17:51:16.099Z,10.80
2018-04-24T17:53:44.626Z,10.80
2018-04-24T17:56:13.140Z,10.70
2018-04-24T17:58:43.651Z,10.80
2018-04-24T18:01:12.162Z,10.90
2018-04-24T18:03:40.660Z,10.70
2018-04-24T18:06:09.159Z,10.80
2018-04-24T18:08:37.650Z,10.70
2018-04-24T18:11:06.262Z,10.80
2018-04-24T18:13:35.278Z,10.80
2018-04-24T18:16:03.796Z,10.60
2018-04-24T18:18:32.363Z,10.60
2018-04-24T18:21:00.943Z,10.50
2018-04-24T18:23:29.615Z,10.50
2018-04-24T18:25:58.283Z,10.40
2018-04-24T18:28:26.855Z,10.40
2018-04-24T18:30:55.410Z,10.30
2018-04-24T18:33:24.073Z,10.20
2018-04-24T18:35:52.601Z,10.20
2018-04-24T18:38:21.920Z,10.10
2018-04-24T18:40:50.450Z,10.10
2018-04-24T18:43:19.012Z,10.10
2018-04-24T18:45:47.670Z,10.00
2018-04-24T18:48:16.154Z,9.90
2018-04-24T18:50:45.232Z,9.80
2018-04-24T18:53:13.848Z,9.80
2018-04-24T18:55:42.321Z,9.70
2018-04-24T18:58:11.751Z,9.70
2018-04-24T19:00:40.221Z,9.60
2018-04-24T19:03:08.814Z,9.80
2018-04-24T19:05:37.330Z,9.70
2018-04-24T19:08:05.864Z,9.50
2018-04-24T19:10:34.981Z,9.50
2018-04-24T19:13:03.528Z,9.40
2018-04-24T19:15:32.042Z,9.40
2018-04-24T19:18:00.721Z,9.30
2018-04-24T19:20:29.229Z,9.40
2018-04-24T19:22:58.146Z,9.40
2018-04-24T19:25:32.385Z,9.40
2018-04-24T19:28:01.149Z,9.50
2018-04-24T19:30:29.630Z,9.60
2018-04-24T19:32:58.156Z,9.70
2018-04-24T19:35:26.635Z,9.60
2018-04-24T19:37:55.134Z,9.50
2018-04-24T19:40:30.006Z,9.50
2018-04-24T19:42:59.513Z,9.50
2018-04-24T19:45:27.972Z,9.50
2018-04-24T19:47:56.532Z,9.50
2018-04-24T19:50:25.041Z,9.40
2018-04-24T19:52:54.304Z,9.30
2018-04-24T19:55:26.721Z,9.30
2018-04-24T19:57:55.990Z,9.30
2018-04-24T20:00:24.485Z,9.30
2018-04-24T20:02:52.994Z,9.30
2018-04-24T20:05:22.287Z,9.30
2018-04-24T20:07:51.610Z,9.30
2018-04-24T20:10:20.264Z,9.20
2018-04-24T20:12:48.955Z,9.20
2018-04-24T20:15:17.564Z,9.20
2018-04-24T20:17:46.055Z,9.10
2018-04-24T20:20:14.534Z,9.00
2018-04-24T20:22:43.080Z,9.00
2018-04-24T20:25:12.333Z,8.90
2018-04-24T20:27:40.938Z,8.90
2018-04-24T20:30:09.597Z,8.90
2018-04-24T20:32:38.465Z,8.80
2018-04-24T20:35:06.988Z,8.80
2018-04-24T20:37:35.463Z,8.70
2018-04-24T20:40:04.006Z,8.70
2018-04-24T20:42:32.511Z,8.70
2018-04-24T20:45:01.032Z,8.70
2018-04-24T20:47:30.376Z,8.50
2018-04-24T20:49:58.857Z,8.50
2018-04-24T20:52:27.368Z,8.50
2018-04-24T20:55:04.490Z,8.50
2018-04-24T20:57:33.531Z,8.60
2018-04-24T21:00:02.598Z,8.60
2018-04-24T21:02:31.291Z,8.50
2018-04-24T21:04:59.981Z,8.50
2018-04-24T21:07:28.650Z,8.40
2018-04-24T21:09:57.767Z,8.40
2018-04-24T21:12:26.458Z,8.50
2018-04-24T21:15:08.737Z,8.40
2018-04-24T21:17:37.717Z,8.40
2018-04-24T21:20:06.927Z,8.30
2018-04-24T21:22:35.880Z,8.20
2018-04-24T21:25:04.706Z,8.30
2018-04-24T21:27:33.707Z,8.30
2018-04-24T21:30:02.474Z,8.30
2018-04-24T21:32:31.583Z,8.30
2018-04-24T21:35:00.646Z,8.30
2018-04-24T21:37:29.133Z,8.30
2018-04-24T21:39:59.721Z,8.20
2018-04-24T21:42:28.786Z,8.20
2018-04-24T21:44:57.799Z,8.30
2018-04-24T21:47:26.491Z,8.30
2018-04-24T21:49:55.238Z,8.30
2018-04-24T21:52:24.678Z,8.30
2018-04-24T21:54:53.318Z,8.30
2018-04-24T21:57:22.331Z,8.30
2018-04-24T21:59:51.223Z,8.30
2018-04-24T22:02:20.169Z,8.30
2018-04-24T22:04:49.006Z,8.30
2018-04-24T22:07:18.079Z,8.30
2018-04-24T22:09:46.579Z,8.30
2018-04-24T22:12:15.481Z,8.40
2018-04-24T22:14:44.155Z,8.30
2018-04-24T22:17:12.847Z,8.40
2018-04-24T22:19:42.351Z,8.40
2018-04-24T22:22:11.033Z,8.40
2018-04-24T22:24:40.046Z,8.30
2018-04-24T22:27:08.738Z,8.30
2018-04-24T22:29:37.754Z,8.30
2018-04-24T22:32:06.494Z,8.30
2018-04-24T22:34:35.076Z,8.40
2018-04-24T22:37:03.562Z,8.30
2018-04-24T22:39:32.247Z,8.30
2018-04-24T22:42:01.340Z,8.30
2018-04-24T22:44:30.435Z,8.30
2018-04-24T22:46:59.495Z,8.30
2018-04-24T22:49:28.514Z,8.30
2018-04-24T22:51:57.210Z,8.20
2018-04-24T22:54:25.899Z,8.10
2018-04-24T22:56:54.684Z,8.20
2018-04-24T22:59:23.708Z,8.10
2018-04-24T23:01:52.448Z,8.10
2018-04-24T23:04:21.968Z,8.10
2018-04-24T23:06:50.956Z,8.10
2018-04-24T23:09:19.647Z,8.00
2018-04-24T23:12:00.239Z,8.00
2018-04-24T23:14:46.694Z,8.00
2018-04-24T23:17:33.646Z,8.00
2018-04-24T23:20:17.161Z,8.00
2018-04-24T23:22:46.667Z,7.90
2018-04-24T23:25:15.745Z,7.80
2018-04-24T23:27:44.838Z,7.80
2018-04-24T23:30:13.747Z,7.80
2018-04-24T23:32:42.638Z,7.80
2018-04-24T23:35:11.287Z,7.80
2018-04-24T23:37:39.829Z,7.90
2018-04-24T23:40:08.596Z,7.80
2018-04-24T23:42:37.663Z,7.70
2018-04-24T23:45:06.356Z,7.70
2018-04-24T23:47:35.047Z,7.70
2018-04-24T23:50:03.739Z,7.80
2018-04-24T23:52:33.092Z,7.90
2018-04-24T23:55:01.834Z,7.80
2018-04-24T23:57:30.640Z,7.80
2018-04-24T23:59:59.820Z,7.80
